Time;durP1;ratioP1;P1;durP2;ratioP2;P2;SDS_P1;SDS_P2;PMS_P1;PMS_P2;Temp;Humidity;BMP_temperature;BMP_pressure;BME280_temperature;BME280_humidity;BME280_pressure;Samples;Min_cycle;Max_cycle;Signal;HPM_P1;HPM_P2
2023/03/15 00:01:37;;;;;;;12.50;2.70;;;2.10;99.90;;;;;;6274421;22;20385;-78
2023/03/15 00:04:04;;;;;;;15.75;3.33;;;2.10;99.90;;;;;;6221930;22;20008;-78
2023/03/15 00:06:32;;;;;;;12.65;2.67;;;2.10;99.90;;;;;;6246798;22;20018;-78
2023/03/15 00:08:58;;;;;;;12.60;3.47;;;2.20;99.90;;;;;;6273639;22;20069;-78
2023/03/15 00:11:24;;;;;;;13.45;3.13;;;2.30;99.90;;;;;;6221734;22;20007;-78
2023/03/15 00:13:50;;;;;;;15.13;2.75;;;2.30;99.90;;;;;;6247069;22;20016;-78
2023/03/15 00:16:17;;;;;;;10.98;2.95;;;2.40;99.90;;;;;;6274476;22;20004;-78
2023/03/15 00:18:44;;;;;;;14.63;3.00;;;2.50;99.90;;;;;;6221519;22;20054;-78
2023/03/15 00:21:09;;;;;;;12.38;2.92;;;2.50;99.90;;;;;;6246701;22;20010;-78
2023/03/15 00:23:35;;;;;;;11.35;2.80;;;2.50;99.90;;;;;;6246630;22;20015;-78
2023/03/15 00:26:00;;;;;;;13.20;2.58;;;2.50;99.90;;;;;;6221457;22;20008;-77
2023/03/15 00:28:26;;;;;;;11.43;3.28;;;2.40;99.90;;;;;;6274301;22;20039;-78
2023/03/15 00:31:16;;;;;;;12.88;2.72;;;2.40;99.90;;;;;;6246752;22;20071;-77
2023/03/15 00:33:42;;;;;;;10.48;3.72;;;2.40;99.90;;;;;;6246650;22;20022;-77
2023/03/15 00:36:09;;;;;;;19.00;3.03;;;2.80;99.90;;;;;;6245877;22;20011;-77
2023/03/15 00:38:36;;;;;;;12.65;3.00;;;2.30;99.90;;;;;;6221386;22;20442;-78
2023/03/15 00:41:11;;;;;;;18.15;3.63;;;2.30;99.90;;;;;;6246954;22;20047;-78
2023/03/15 00:43:37;;;;;;;15.35;4.13;;;2.20;99.90;;;;;;6246892;22;20107;-77
2023/03/15 00:46:04;;;;;;;9.68;2.90;;;2.20;99.90;;;;;;6246810;22;20110;-77
2023/03/15 00:48:30;;;;;;;12.02;2.65;;;2.10;99.90;;;;;;6246340;22;20004;-78
2023/03/15 00:51:14;;;;;;;20.45;3.60;;;2.10;99.90;;;;;;6273284;22;20330;-77
2023/03/15 00:53:42;;;;;;;16.27;3.05;;;2.10;99.90;;;;;;6274131;22;20012;-77
2023/03/15 00:56:20;;;;;;;18.80;3.40;;;2.00;99.90;;;;;;6246442;22;20506;-77
2023/03/15 00:58:45;;;;;;;18.80;3.47;;;2.00;99.90;;;;;;6246458;22;20007;-78
2023/03/15 01:01:14;;;;;;;13.82;3.17;;;2.00;99.90;;;;;;6221279;22;20007;-77
2023/03/15 01:03:40;;;;;;;13.50;3.35;;;1.90;99.90;;;;;;6273451;22;20263;-77
2023/03/15 01:06:15;;;;;;;16.40;3.38;;;1.90;99.90;;;;;;6220637;22;20035;-78
2023/03/15 01:08:41;;;;;;;16.38;2.95;;;1.80;99.90;;;;;;6246139;22;20061;-78
2023/03/15 01:11:10;;;;;;;14.25;3.28;;;1.80;99.90;;;;;;6221142;22;20018;-77
2023/03/15 01:13:36;;;;;;;17.27;2.95;;;1.80;99.90;;;;;;6273858;22;20221;-77
2023/03/15 01:16:02;;;;;;;14.52;3.08;;;1.70;99.90;;;;;;6246793;22;20026;-77
2023/03/15 01:18:28;;;;;;;14.02;2.90;;;1.70;99.90;;;;;;6246603;22;20011;-78
2023/03/15 01:20:54;;;;;;;16.23;3.05;;;1.60;99.90;;;;;;6272569;22;20462;-78
2023/03/15 01:23:20;;;;;;;16.23;3.63;;;1.60;99.90;;;;;;6246651;22;20083;-78
2023/03/15 01:25:45;;;;;;;11.30;2.88;;;1.70;99.90;;;;;;6246419;22;20358;-78
2023/03/15 01:28:11;;;;;;;10.25;2.45;;;1.80;99.90;;;;;;6246289;22;20011;-77
2023/03/15 01:30:37;;;;;;;10.35;3.20;;;1.90;99.90;;;;;;6220872;22;20320;-78
2023/03/15 01:33:02;;;;;;;11.35;3.25;;;1.90;99.90;;;;;;6220992;22;20077;-78
2023/03/15 01:35:28;;;;;;;10.25;1.90;;;2.00;99.90;;;;;;6245267;22;20351;-77
2023/03/15 01:37:54;;;;;;;10.27;2.13;;;2.00;99.90;;;;;;6273547;22;20011;-78
2023/03/15 01:40:19;;;;;;;12.93;2.92;;;2.00;99.90;;;;;;6220958;22;20027;-78
2023/03/15 01:43:03;;;;;;;13.10;2.63;;;2.00;99.90;;;;;;6246346;22;20008;-78
2023/03/15 01:45:54;;;;;;;12.32;2.45;;;2.00;99.90;;;;;;6246402;22;20054;-77
2023/03/15 01:48:24;;;;;;;11.98;2.58;;;1.90;99.90;;;;;;6245626;22;20265;-77
2023/03/15 01:50:53;;;;;;;15.65;2.83;;;1.80;99.90;;;;;;6246235;22;20106;-77
2023/03/15 01:53:22;;;;;;;12.38;2.65;;;1.80;99.90;;;;;;6246077;22;20016;-78
2023/03/15 01:55:47;;;;;;;16.23;2.88;;;1.70;99.90;;;;;;6220767;22;20023;-78
2023/03/15 01:58:14;;;;;;;10.93;2.58;;;1.70;99.90;;;;;;6221012;22;20012;-78
2023/03/15 02:00:40;;;;;;;12.80;2.70;;;1.60;99.90;;;;;;6273538;22;20374;-78
2023/03/15 02:03:13;;;;;;;14.70;2.78;;;1.50;99.90;;;;;;6245484;22;20015;-78
2023/03/15 02:06:08;;;;;;;14.20;2.78;;;1.50;99.90;;;;;;6221059;22;20012;-77
2023/03/15 02:08:41;;;;;;;13.48;3.10;;;1.50;99.90;;;;;;6242064;22;20439;-77
2023/03/15 02:11:06;;;;;;;13.00;2.33;;;1.40;99.90;;;;;;6246153;22;20438;-77
2023/03/15 02:13:35;;;;;;;20.40;2.95;;;1.40;99.90;;;;;;6246540;22;20099;-77
2023/03/15 02:16:05;;;;;;;13.85;3.15;;;1.30;99.90;;;;;;6246147;22;20034;-77
2023/03/15 02:18:34;;;;;;;12.68;2.35;;;1.30;99.90;;;;;;6245420;22;20011;-78
2023/03/15 02:21:34;;;;;;;11.60;2.30;;;1.20;99.90;;;;;;6220710;22;20020;-77
2023/03/15 02:24:28;;;;;;;11.27;2.47;;;1.10;99.90;;;;;;6198109;22;20027;-77
2023/03/15 02:26:56;;;;;;;12.20;2.80;;;1.10;99.90;;;;;;6245820;22;20022;-77
2023/03/15 02:29:25;;;;;;;17.17;2.65;;;1.00;99.90;;;;;;6273421;22;20344;-77
2023/03/15 02:31:52;;;;;;;12.75;2.20;;;0.90;99.90;;;;;;6272563;22;20296;-78
2023/03/15 02:34:18;;;;;;;12.65;2.53;;;0.90;99.90;;;;;;6273581;22;20020;-77
2023/03/15 02:36:43;;;;;;;16.63;2.70;;;0.90;99.90;;;;;;6220635;22;20457;-77
2023/03/15 02:39:15;;;;;;;18.17;2.75;;;0.80;99.90;;;;;;6246042;22;20031;-78
2023/03/15 02:41:46;;;;;;;8.27;2.65;;;0.80;99.90;;;;;;6220453;22;20022;-77
2023/03/15 02:44:22;;;;;;;9.27;2.40;;;0.80;99.90;;;;;;6246442;22;20015;-77
2023/03/15 02:46:50;;;;;;;12.73;2.60;;;0.70;99.90;;;;;;6246880;22;20011;-78
2023/03/15 02:49:17;;;;;;;9.45;2.60;;;0.70;99.90;;;;;;6222396;22;20335;-78
2023/03/15 02:51:43;;;;;;;10.43;2.47;;;0.70;99.90;;;;;;6221905;22;20043;-78
2023/03/15 02:54:08;;;;;;;14.40;2.65;;;0.70;99.90;;;;;;6247975;22;20011;-77
2023/03/15 02:56:34;;;;;;;15.07;2.15;;;0.70;99.90;;;;;;6274910;22;20064;-78
2023/03/15 02:59:00;;;;;;;16.35;3.05;;;0.60;99.90;;;;;;6222123;22;20133;-77
2023/03/15 03:01:25;;;;;;;13.82;3.05;;;0.70;99.90;;;;;;6247055;22;20095;-77
2023/03/15 03:03:51;;;;;;;13.85;2.70;;;0.60;99.90;;;;;;6274992;22;20668;-77
2023/03/15 03:06:17;;;;;;;17.10;3.15;;;0.60;99.90;;;;;;6247295;22;20051;-77
2023/03/15 03:08:45;;;;;;;13.38;3.08;;;0.50;99.90;;;;;;6247824;22;20016;-77
2023/03/15 03:11:15;;;;;;;12.85;2.90;;;0.50;99.90;;;;;;6274781;22;20014;-78
2023/03/15 03:13:41;;;;;;;15.52;2.60;;;0.50;99.90;;;;;;6247332;22;20041;-77
2023/03/15 03:16:07;;;;;;;8.63;2.40;;;0.40;99.90;;;;;;6247059;22;20004;-77
2023/03/15 03:18:34;;;;;;;9.00;2.22;;;0.40;99.90;;;;;;6247098;22;20470;-78
2023/03/15 03:21:02;;;;;;;13.60;2.30;;;0.40;99.90;;;;;;6221873;22;20094;-77
2023/03/15 03:23:28;;;;;;;13.48;3.58;;;0.30;99.90;;;;;;6247156;22;20035;-77
2023/03/15 03:25:56;;;;;;;10.90;2.50;;;0.30;99.90;;;;;;6221912;22;20504;-78
2023/03/15 03:28:26;;;;;;;10.70;2.70;;;0.20;99.90;;;;;;6247410;22;20403;-77
2023/03/15 03:30:54;;;;;;;16.75;2.67;;;0.10;99.90;;;;;;6247392;22;20095;-77
2023/03/15 03:33:20;;;;;;;11.43;2.58;;;0.10;99.90;;;;;;6247030;22;20161;-77
2023/03/15 03:35:46;;;;;;;10.40;2.65;;;0.10;99.90;;;;;;6247308;22;20022;-77
2023/03/15 03:38:11;;;;;;;11.38;2.10;;;0.00;99.90;;;;;;6247384;22;20059;-77
2023/03/15 03:40:38;;;;;;;10.73;2.70;;;0.00;99.90;;;;;;6274826;22;20326;-77
2023/03/15 03:43:04;;;;;;;13.38;2.50;;;0.00;99.90;;;;;;6247113;22;20011;-78
2023/03/15 03:45:29;;;;;;;14.88;3.15;;;0.00;99.90;;;;;;6247166;22;20008;-78
2023/03/15 03:47:55;;;;;;;10.43;2.50;;;0.00;99.90;;;;;;6247224;22;20379;-78
2023/03/15 03:50:20;;;;;;;11.45;2.95;;;0.00;99.90;;;;;;6246906;22;20011;-77
2023/03/15 03:52:46;;;;;;;12.55;2.97;;;0.00;99.90;;;;;;6247637;22;20008;-78
2023/03/15 03:55:15;;;;;;;13.45;3.17;;;0.00;99.90;;;;;;6247139;22;20007;-77
2023/03/15 03:57:41;;;;;;;15.27;3.80;;;0.00;99.90;;;;;;6246582;22;20430;-77
2023/03/15 04:00:13;;;;;;;17.27;3.70;;;-0.10;99.90;;;;;;6247027;22;20011;-78
2023/03/15 04:02:43;;;;;;;8.40;2.80;;;-0.10;99.90;;;;;;6246925;22;20057;-77
2023/03/15 04:05:10;;;;;;;11.90;3.17;;;-0.20;99.90;;;;;;6274443;22;20038;-77
2023/03/15 04:07:36;;;;;;;10.90;2.70;;;-0.20;99.90;;;;;;6246803;22;20049;-77
2023/03/15 04:10:01;;;;;;;15.77;2.72;;;-0.20;99.90;;;;;;6246967;22;20061;-77
2023/03/15 04:12:27;;;;;;;13.80;3.00;;;-0.20;99.90;;;;;;6246830;22;20193;-77
2023/03/15 04:14:53;;;;;;;14.98;3.10;;;-0.30;99.90;;;;;;6221197;22;20012;-77
2023/03/15 04:17:19;;;;;;;13.90;2.78;;;-0.30;99.90;;;;;;6247095;22;20414;-77
2023/03/15 04:19:45;;;;;;;14.27;3.00;;;-0.30;99.90;;;;;;6247190;22;20055;-77
2023/03/15 04:22:14;;;;;;;9.85;2.95;;;-0.30;99.90;;;;;;6246781;22;20019;-77
2023/03/15 04:24:40;;;;;;;14.68;2.60;;;-0.30;99.90;;;;;;6247320;22;20031;-77
2023/03/15 04:27:06;;;;;;;12.00;2.35;;;-0.30;99.90;;;;;;6274281;22;20397;-77
2023/03/15 04:29:31;;;;;;;14.98;3.30;;;-0.30;99.90;;;;;;6246327;22;20036;-77
2023/03/15 04:32:00;;;;;;;9.77;2.50;;;-0.30;99.90;;;;;;6246630;22;20019;-77
2023/03/15 04:34:28;;;;;;;10.73;2.75;;;-0.30;99.90;;;;;;6246960;22;20007;-78
2023/03/15 04:36:54;;;;;;;16.10;2.60;;;-0.30;99.90;;;;;;6247078;22;20018;-77
2023/03/15 04:39:20;;;;;;;11.73;2.85;;;-0.30;99.90;;;;;;6273798;22;20079;-77
2023/03/15 04:41:45;;;;;;;14.45;2.83;;;-0.30;99.90;;;;;;6246498;22;20411;-77
2023/03/15 04:44:15;;;;;;;13.40;2.95;;;-0.30;99.90;;;;;;6246001;22;20012;-77
2023/03/15 04:46:41;;;;;;;13.75;2.42;;;-0.30;99.90;;;;;;6246618;22;20434;-77
2023/03/15 04:49:07;;;;;;;12.10;2.50;;;-0.30;99.90;;;;;;6246879;22;20008;-77
2023/03/15 04:51:33;;;;;;;12.43;2.70;;;-0.20;99.90;;;;;;6246590;22;20082;-77
2023/03/15 04:53:59;;;;;;;14.25;2.70;;;-0.20;99.90;;;;;;6246570;22;20339;-77
2023/03/15 04:56:25;;;;;;;14.15;2.45;;;-0.20;99.90;;;;;;6221184;22;20008;-77
2023/03/15 04:58:51;;;;;;;14.10;3.05;;;-0.20;99.90;;;;;;6273496;22;20062;-78
2023/03/15 05:01:17;;;;;;;19.23;2.55;;;-0.30;99.90;;;;;;6246661;22;20016;-77
2023/03/15 05:03:42;;;;;;;10.98;2.75;;;-0.30;99.90;;;;;;6245818;22;20015;-77
2023/03/15 05:06:08;;;;;;;11.07;2.60;;;-0.40;99.90;;;;;;6246722;22;20028;-78
2023/03/15 05:08:36;;;;;;;11.18;2.42;;;-0.40;99.90;;;;;;6273410;22;20008;-77
2023/03/15 05:11:03;;;;;;;10.48;2.35;;;-0.50;99.90;;;;;;6246349;22;20007;-77
2023/03/15 05:13:29;;;;;;;12.80;2.83;;;-0.50;99.90;;;;;;6245790;22;20056;-77
2023/03/15 05:15:55;;;;;;;19.50;2.58;;;-0.50;99.90;;;;;;6273760;22;20008;-76
2023/03/15 05:18:21;;;;;;;9.82;2.72;;;-0.60;99.90;;;;;;6246155;22;20014;-76
2023/03/15 05:20:46;;;;;;;15.43;3.05;;;-0.60;99.90;;;;;;6273745;22;20012;-76
2023/03/15 05:23:12;;;;;;;10.88;2.53;;;-0.60;99.90;;;;;;6246268;22;20023;-76
2023/03/15 05:25:38;;;;;;;12.85;2.80;;;-0.60;99.90;;;;;;6246193;22;20035;-77
2023/03/15 05:28:04;;;;;;;12.32;2.72;;;-0.60;99.90;;;;;;6245948;22;20016;-77
2023/03/15 05:30:30;;;;;;;10.18;2.42;;;-0.70;99.90;;;;;;6246194;22;20034;-77
2023/03/15 05:32:56;;;;;;;11.63;2.53;;;-0.70;99.90;;;;;;6220673;22;20107;-77
2023/03/15 05:35:25;;;;;;;9.77;2.30;;;-0.70;99.90;;;;;;6273460;22;20015;-77
2023/03/15 05:37:51;;;;;;;12.95;2.58;;;-0.80;99.90;;;;;;6220665;22;20012;-77
2023/03/15 05:40:17;;;;;;;14.02;3.13;;;-0.80;99.90;;;;;;6273020;22;20087;-77
2023/03/15 05:42:43;;;;;;;12.85;3.05;;;-0.80;99.90;;;;;;6273430;22;20090;-77
2023/03/15 05:45:09;;;;;;;10.25;2.40;;;-0.80;99.90;;;;;;6220669;22;20283;-76
2023/03/15 05:47:35;;;;;;;12.80;2.85;;;-0.80;99.90;;;;;;6220704;22;20511;-77
2023/03/15 05:50:00;;;;;;;12.27;3.22;;;-0.80;99.90;;;;;;6221036;22;20012;-77
2023/03/15 05:52:26;;;;;;;11.52;3.00;;;-0.80;99.90;;;;;;6246359;22;20008;-77
2023/03/15 05:54:51;;;;;;;11.40;2.65;;;-0.80;99.90;;;;;;6245611;22;20022;-77
2023/03/15 05:57:17;;;;;;;14.75;2.95;;;-0.80;99.90;;;;;;6246022;22;20118;-76
2023/03/15 05:59:42;;;;;;;16.48;3.53;;;-0.80;99.90;;;;;;6273412;22;20073;-76
2023/03/15 06:02:08;;;;;;;12.25;3.00;;;-0.80;99.90;;;;;;6273408;22;20012;-77
2023/03/15 06:04:35;;;;;;;10.55;2.72;;;-0.80;99.90;;;;;;6273450;22;20088;-77
2023/03/15 06:07:00;;;;;;;14.00;3.10;;;-0.80;99.90;;;;;;6273472;22;20061;-76
2023/03/15 06:09:26;;;;;;;12.10;3.00;;;-0.70;99.90;;;;;;6272990;22;20083;-76
2023/03/15 06:11:52;;;;;;;17.35;2.85;;;-0.70;99.90;;;;;;6273518;22;20437;-77
2023/03/15 06:14:18;;;;;;;11.18;2.67;;;-0.60;99.90;;;;;;6246097;22;20305;-77
2023/03/15 06:16:43;;;;;;;15.73;3.22;;;-0.50;99.90;;;;;;6220891;22;20016;-77
2023/03/15 06:19:09;;;;;;;14.45;3.63;;;-0.40;99.90;;;;;;6220472;22;20403;-77
2023/03/15 06:21:34;;;;;;;18.05;3.42;;;-0.40;99.90;;;;;;6274704;22;20011;-76
2023/03/15 06:24:00;;;;;;;19.48;2.95;;;0.50;99.90;;;;;;6247371;22;20007;-77
2023/03/15 06:26:26;;;;;;;14.30;3.30;;;0.30;99.90;;;;;;6275090;22;20082;-77
2023/03/15 06:28:51;;;;;;;15.00;3.20;;;-0.20;99.90;;;;;;6222605;22;20042;-77
2023/03/15 06:31:17;;;;;;;13.82;3.38;;;-0.20;99.90;;;;;;6247629;22;20411;-76
2023/03/15 06:33:42;;;;;;;12.65;3.38;;;-0.20;99.90;;;;;;6248168;22;20015;-76
2023/03/15 06:36:08;;;;;;;11.63;3.03;;;-0.20;99.90;;;;;;6275081;22;20338;-77
2023/03/15 06:38:34;;;;;;;14.88;3.20;;;-0.10;99.90;;;;;;6247216;22;20007;-77
2023/03/15 06:41:00;;;;;;;10.48;2.83;;;-0.10;99.90;;;;;;6222351;22;20120;-76
2023/03/15 06:43:26;;;;;;;9.75;3.28;;;-0.10;99.90;;;;;;6247923;22;20186;-77
2023/03/15 06:45:55;;;;;;;12.43;2.53;;;-0.10;99.90;;;;;;6275270;22;20093;-77
2023/03/15 06:48:21;;;;;;;13.80;3.10;;;-0.10;99.90;;;;;;6247979;22;20107;-77
2023/03/15 06:50:47;;;;;;;7.88;2.53;;;0.00;99.90;;;;;;6222443;22;20007;-77
2023/03/15 06:53:13;;;;;;;14.70;3.35;;;0.00;99.90;;;;;;6247183;22;20026;-78
2023/03/15 06:55:38;;;;;;;15.07;2.83;;;0.10;99.90;;;;;;6247627;22;20054;-77
2023/03/15 06:58:04;;;;;;;8.90;2.63;;;0.10;99.90;;;;;;6222281;22;20008;-77
2023/03/15 07:00:29;;;;;;;13.85;3.25;;;0.20;99.90;;;;;;6222289;22;20069;-77
2023/03/15 07:02:55;;;;;;;9.55;2.58;;;0.30;99.90;;;;;;6222302;22;20012;-77
2023/03/15 07:05:21;;;;;;;14.68;3.40;;;0.40;99.90;;;;;;6222232;22;20398;-77
2023/03/15 07:07:46;;;;;;;15.05;3.22;;;0.50;99.90;;;;;;6247252;22;20406;-77
2023/03/15 07:10:12;;;;;;;15.27;2.90;;;0.60;99.90;;;;;;6248039;22;20018;-77
2023/03/15 07:12:37;;;;;;;17.73;3.35;;;0.80;99.90;;;;;;6247974;22;20011;-77
2023/03/15 07:15:03;;;;;;;11.02;2.95;;;0.90;99.90;;;;;;6222247;22;20015;-77
2023/03/15 07:17:29;;;;;;;9.32;2.55;;;1.00;99.90;;;;;;6274762;22;20043;-77
2023/03/15 07:19:54;;;;;;;11.02;2.95;;;1.10;99.90;;;;;;6222148;22;20012;-77
2023/03/15 07:22:21;;;;;;;11.88;2.72;;;1.20;99.90;;;;;;6246945;22;20339;-77
2023/03/15 07:24:47;;;;;;;14.18;3.70;;;1.30;99.90;;;;;;6222036;22;20014;-77
2023/03/15 07:27:14;;;;;;;13.73;2.75;;;1.40;99.90;;;;;;6221967;22;20008;-77
2023/03/15 07:29:40;;;;;;;10.50;2.75;;;1.40;99.90;;;;;;6247259;22;20338;-78
2023/03/15 07:32:05;;;;;;;8.98;2.55;;;1.50;99.90;;;;;;6221382;22;20016;-77
2023/03/15 07:34:31;;;;;;;13.10;2.60;;;1.60;99.90;;;;;;6247517;22;20469;-78
2023/03/15 07:36:57;;;;;;;13.40;3.40;;;1.60;99.90;;;;;;6246780;22;20007;-77
2023/03/15 07:39:24;;;;;;;11.43;2.78;;;1.70;99.90;;;;;;6274778;22;20058;-78
2023/03/15 07:41:50;;;;;;;10.73;2.97;;;1.80;99.90;;;;;;6247237;22;20016;-78
2023/03/15 07:44:16;;;;;;;11.75;2.95;;;1.80;99.90;;;;;;6247315;22;20066;-78
2023/03/15 07:46:41;;;;;;;14.48;2.75;;;1.90;99.90;;;;;;6247341;22;20007;-77
2023/03/15 07:49:07;;;;;;;7.68;2.50;;;1.90;99.90;;;;;;6222097;22;20023;-77
2023/03/15 07:51:33;;;;;;;11.52;3.00;;;2.00;99.90;;;;;;6221322;22;20428;-79
2023/03/15 07:53:58;;;;;;;12.23;3.08;;;2.00;99.90;;;;;;6221705;22;20012;-78
2023/03/15 07:56:24;;;;;;;11.48;2.28;;;2.10;99.90;;;;;;6247705;22;20031;-78
2023/03/15 07:58:49;;;;;;;15.45;3.05;;;2.10;99.90;;;;;;6274171;22;20391;-77
2023/03/15 08:01:15;;;;;;;15.43;3.45;;;2.20;99.90;;;;;;6247170;22;20439;-78
2023/03/15 08:03:41;;;;;;;15.90;3.08;;;2.20;99.90;;;;;;6247200;22;20046;-78
2023/03/15 08:06:07;;;;;;;17.48;3.17;;;2.30;99.90;;;;;;6273912;22;20066;-78
2023/03/15 08:08:32;;;;;;;13.32;3.08;;;2.40;99.90;;;;;;6246768;22;20004;-78
2023/03/15 08:10:58;;;;;;;15.50;3.65;;;2.50;99.90;;;;;;6247134;22;20073;-78
2023/03/15 08:13:24;;;;;;;13.10;3.08;;;2.60;99.90;;;;;;6221802;22;20011;-78
2023/03/15 08:15:50;;;;;;;14.25;3.38;;;2.60;99.90;;;;;;6274746;22;20346;-78
2023/03/15 08:18:16;;;;;;;10.15;2.92;;;2.70;99.90;;;;;;6247482;22;20499;-78
2023/03/15 08:20:41;;;;;;;14.32;2.90;;;2.80;99.90;;;;;;6246353;22;20015;-78
2023/03/15 08:23:08;;;;;;;14.13;2.75;;;2.80;99.90;;;;;;6221399;22;20008;-77
2023/03/15 08:25:35;;;;;;;10.00;2.63;;;2.80;99.90;;;;;;6221719;22;20114;-78
2023/03/15 08:28:01;;;;;;;17.10;3.20;;;2.90;99.90;;;;;;6274577;22;20008;-78
2023/03/15 08:30:26;;;;;;;13.55;3.08;;;3.10;99.90;;;;;;6247444;22;20383;-78
2023/03/15 08:32:52;;;;;;;14.75;3.28;;;3.00;99.90;;;;;;6246962;22;20095;-78
2023/03/15 08:35:20;;;;;;;18.52;3.63;;;3.10;99.90;;;;;;6221810;22;20043;-78
2023/03/15 08:37:46;;;;;;;18.40;3.35;;;3.20;99.90;;;;;;6221336;22;20011;-79
2023/03/15 08:40:17;;;;;;;16.88;4.45;;;3.70;99.90;;;;;;6221632;22;20117;-78
2023/03/15 08:42:44;;;;;;;14.88;3.22;;;3.40;99.90;;;;;;6221331;22;20047;-78
2023/03/15 08:45:10;;;;;;;15.38;3.17;;;3.40;99.90;;;;;;6246741;22;20061;-78
2023/03/15 08:47:36;;;;;;;17.20;3.03;;;3.40;99.90;;;;;;6247394;22;20008;-78
2023/03/15 08:50:04;;;;;;;19.60;3.65;;;3.50;99.90;;;;;;6246609;22;20008;-78
2023/03/15 08:52:30;;;;;;;13.25;3.00;;;3.20;99.90;;;;;;6247292;22;20022;-78
2023/03/15 08:54:56;;;;;;;13.23;2.70;;;3.70;99.90;;;;;;6221487;22;20008;-78
2023/03/15 08:57:25;;;;;;;14.90;3.22;;;3.70;99.90;;;;;;6246714;22;20034;-78
2023/03/15 08:59:51;;;;;;;13.68;2.53;;;4.10;99.90;;;;;;6221379;22;20127;-78
2023/03/15 09:02:17;;;;;;;10.38;3.15;;;3.80;99.90;;;;;;6247067;22;20015;-78
2023/03/15 09:04:43;;;;;;;12.50;2.75;;;3.90;99.90;;;;;;6273544;22;20034;-78
2023/03/15 09:07:11;;;;;;;11.40;2.08;;;4.00;99.90;;;;;;6246622;22;20011;-77
2023/03/15 09:09:37;;;;;;;8.40;2.80;;;4.00;99.90;;;;;;6274021;22;20008;-78
2023/03/15 09:12:03;;;;;;;11.70;2.72;;;4.00;99.90;;;;;;6221182;22;20355;-78
2023/03/15 09:14:29;;;;;;;10.77;2.70;;;4.10;99.90;;;;;;6246805;22;20035;-78
2023/03/15 09:16:54;;;;;;;11.93;2.70;;;4.20;99.90;;;;;;6247074;22;20427;-78
2023/03/15 09:19:20;;;;;;;11.75;2.53;;;4.30;99.90;;;;;;6245535;22;20051;-78
2023/03/15 09:21:46;;;;;;;19.85;2.40;;;4.30;99.90;;;;;;6273815;22;20320;-78
2023/03/15 09:24:11;;;;;;;12.57;2.58;;;4.40;99.90;;;;;;6221008;22;20027;-78
2023/03/15 09:26:37;;;;;;;14.25;2.80;;;4.50;99.90;;;;;;6221213;22;20076;-78
2023/03/15 09:29:03;;;;;;;7.72;2.15;;;4.60;99.90;;;;;;6246597;22;20004;-78
2023/03/15 09:31:30;;;;;;;13.60;2.97;;;4.60;99.90;;;;;;6246669;22;20016;-78
2023/03/15 09:33:56;;;;;;;10.18;2.30;;;4.70;99.90;;;;;;6246457;22;20016;-78
2023/03/15 09:36:22;;;;;;;9.60;2.60;;;4.80;99.90;;;;;;6273951;22;20087;-78
2023/03/15 09:38:47;;;;;;;13.38;2.50;;;4.80;99.90;;;;;;6246465;22;20460;-78
2023/03/15 09:41:35;;;;;;;10.57;2.50;;;4.90;99.90;;;;;;6246336;22;20004;-78
2023/03/15 09:44:43;;;;;;;9.85;2.30;;;4.90;99.90;;;;;;6246334;22;20095;-78
2023/03/15 09:47:41;;;;;;;19.10;2.85;;;5.00;99.90;;;;;;6246331;22;20018;-78
2023/03/15 09:50:19;;;;;;;11.07;2.40;;;5.10;99.90;;;;;;6246092;22;20022;-79
2023/03/15 09:52:55;;;;;;;11.43;2.33;;;5.10;99.90;;;;;;6246723;22;20414;-78
2023/03/15 09:55:26;;;;;;;10.20;2.85;;;5.30;99.90;;;;;;6273984;22;20442;-78
2023/03/15 09:58:04;;;;;;;12.23;2.40;;;5.30;99.90;;;;;;6247949;22;20323;-78
2023/03/15 10:00:35;;;;;;;17.15;3.10;;;5.30;99.90;;;;;;6248126;22;20050;-78
2023/03/15 10:03:05;;;;;;;7.43;2.00;;;5.40;99.90;;;;;;6222646;22;20012;-78
2023/03/15 10:05:42;;;;;;;5.78;1.77;;;5.50;99.90;;;;;;6275440;22;20339;-78
2023/03/15 10:08:13;;;;;;;9.68;2.35;;;5.60;99.90;;;;;;6248082;22;20090;-78
2023/03/15 10:10:51;;;;;;;7.50;1.90;;;5.60;99.90;;;;;;6247890;22;20008;-78
2023/03/15 10:13:23;;;;;;;12.75;2.50;;;5.70;99.90;;;;;;6222789;22;20022;-78
2023/03/15 10:16:16;;;;;;;11.45;2.63;;;5.80;99.90;;;;;;6247748;22;20008;-79
2023/03/15 10:18:52;;;;;;;9.75;2.13;;;5.80;99.90;;;;;;6222702;22;20012;-78
2023/03/15 10:21:37;;;;;;;10.77;2.40;;;5.90;99.90;;;;;;6222912;22;20012;-78
2023/03/15 10:24:07;;;;;;;10.82;3.05;;;6.00;99.90;;;;;;6248348;22;20043;-79
2023/03/15 10:26:38;;;;;;;6.40;2.00;;;6.00;99.90;;;;;;6248732;22;20012;-79
2023/03/15 10:29:14;;;;;;;11.02;2.28;;;6.20;99.90;;;;;;6222839;22;20047;-78
2023/03/15 10:31:45;;;;;;;10.48;2.50;;;6.30;99.90;;;;;;6247369;22;20051;-78
2023/03/15 10:34:11;;;;;;;15.48;2.35;;;6.40;99.90;;;;;;6247899;22;20103;-78
2023/03/15 10:36:43;;;;;;;8.85;1.98;;;6.50;99.90;;;;;;6247866;22;20402;-78
2023/03/15 10:39:10;;;;;;;12.07;2.72;;;6.60;99.90;;;;;;6275351;22;20019;-78
2023/03/15 10:41:45;;;;;;;11.85;2.72;;;6.70;99.90;;;;;;6275179;22;20320;-79
2023/03/15 10:44:14;;;;;;;10.50;2.40;;;6.60;99.90;;;;;;6247902;22;20090;-78
2023/03/15 10:46:40;;;;;;;12.07;2.25;;;6.80;99.90;;;;;;6222119;22;20086;-78
2023/03/15 10:49:14;;;;;;;11.93;2.50;;;7.00;99.90;;;;;;6247690;22;20038;-78
2023/03/15 10:51:47;;;;;;;8.18;1.88;;;7.10;99.90;;;;;;6247657;22;20027;-78
2023/03/15 10:54:19;;;;;;;8.38;2.58;;;7.30;99.90;;;;;;6275293;22;20019;-78
2023/03/15 10:56:46;;;;;;;9.63;2.38;;;7.30;99.90;;;;;;6222531;22;20008;-79
2023/03/15 10:59:25;;;;;;;17.58;3.15;;;7.10;99.90;;;;;;6274637;22;20054;-78
2023/03/15 11:01:53;;;;;;;9.27;2.25;;;7.00;99.90;;;;;;6222571;22;20007;-79
2023/03/15 11:04:22;;;;;;;12.63;2.20;;;6.90;99.90;;;;;;6274750;22;20418;-78
2023/03/15 11:06:56;;;;;;;8.45;2.10;;;6.80;99.90;;;;;;6248080;22;20331;-78
2023/03/15 11:09:25;;;;;;;9.35;2.60;;;6.80;99.90;;;;;;6222345;22;20451;-78
2023/03/15 11:12:06;;;;;;;10.85;2.45;;;7.00;99.90;;;;;;6247830;22;20023;-78
2023/03/15 11:14:45;;;;;;;13.18;2.58;;;7.20;99.90;;;;;;6221800;22;20474;-79
2023/03/15 11:17:21;;;;;;;10.52;2.50;;;7.50;99.90;;;;;;6248023;22;20084;-79
2023/03/15 11:20:24;;;;;;;12.80;2.83;;;7.70;99.90;;;;;;6274750;22;20023;-79
2023/03/15 11:22:52;;;;;;;8.18;2.08;;;7.60;99.90;;;;;;6202414;22;20087;-78
2023/03/15 11:25:19;;;;;;;10.38;2.25;;;7.50;99.90;;;;;;6247833;22;20385;-78
2023/03/15 11:27:50;;;;;;;11.07;2.53;;;7.40;99.90;;;;;;6274817;22;20007;-79
2023/03/15 11:30:17;;;;;;;9.95;2.15;;;7.40;99.90;;;;;;6221452;22;20338;-78
2023/03/15 11:32:45;;;;;;;7.95;2.13;;;7.40;99.90;;;;;;6247205;22;20066;-79
2023/03/15 11:35:20;;;;;;;7.70;1.98;;;7.50;99.90;;;;;;6222240;22;20027;-78
2023/03/15 11:37:54;;;;;;;10.93;1.92;;;7.50;99.90;;;;;;6247586;22;20062;-78
2023/03/15 11:40:21;;;;;;;6.20;1.88;;;7.70;99.90;;;;;;6247202;22;20020;-79
2023/03/15 11:42:47;;;;;;;13.23;2.22;;;7.70;99.90;;;;;;6221385;22;20019;-78
2023/03/15 11:45:40;;;;;;;9.13;2.13;;;7.90;99.90;;;;;;6247311;22;20292;-79
2023/03/15 11:48:42;;;;;;;13.32;2.40;;;8.00;99.90;;;;;;6221871;22;20011;-79
2023/03/15 11:51:10;;;;;;;10.05;2.00;;;8.10;99.90;;;;;;6204812;22;20026;-79
2023/03/15 11:53:44;;;;;;;7.95;2.00;;;8.20;99.90;;;;;;6247428;22;20011;-79
2023/03/15 11:56:24;;;;;;;8.70;1.90;;;8.30;99.90;;;;;;6275085;22;20069;-78
2023/03/15 11:59:11;;;;;;;11.23;2.28;;;8.40;99.90;;;;;;6247042;22;20007;-78
2023/03/15 12:01:51;;;;;;;9.45;2.17;;;8.60;99.90;;;;;;6222620;22;20015;-78
2023/03/15 12:04:40;;;;;;;7.32;1.90;;;8.90;99.90;;;;;;6274803;22;20034;-78
2023/03/15 12:07:27;;;;;;;8.88;2.05;;;9.00;99.90;;;;;;6246956;22;20019;-79
2023/03/15 12:09:55;;;;;;;10.60;2.10;;;8.90;99.90;;;;;;6274312;22;20014;-79
2023/03/15 12:12:24;;;;;;;7.28;1.90;;;8.90;99.90;;;;;;6246409;22;20020;-78
2023/03/15 12:15:14;;;;;;;7.40;1.70;;;9.00;99.90;;;;;;6246986;22;20102;-78
2023/03/15 12:17:45;;;;;;;7.68;1.95;;;9.00;99.90;;;;;;6274333;22;20026;-78
2023/03/15 12:20:10;;;;;;;8.13;2.40;;;8.80;99.90;;;;;;6246750;22;20014;-78
2023/03/15 12:22:46;;;;;;;9.60;2.50;;;8.70;99.90;;;;;;6246810;22;20043;-78
2023/03/15 12:25:15;;;;;;;10.00;2.47;;;8.60;99.90;;;;;;6274397;22;20012;-78
2023/03/15 12:27:52;;;;;;;9.98;2.20;;;8.50;99.90;;;;;;6246240;22;20027;-78
2023/03/15 12:30:41;;;;;;;6.10;1.73;;;8.50;99.90;;;;;;6273923;22;20486;-79
2023/03/15 12:33:16;;;;;;;10.60;2.40;;;8.60;99.90;;;;;;6246595;22;20018;-78
2023/03/15 12:35:43;;;;;;;8.73;2.10;;;8.50;99.90;;;;;;6221456;22;20381;-78
2023/03/15 12:38:18;;;;;;;8.35;2.35;;;8.50;99.90;;;;;;6221279;22;20012;-78
2023/03/15 12:40:55;;;;;;;10.05;2.30;;;8.50;99.90;;;;;;6245732;22;20355;-79
2023/03/15 12:43:42;;;;;;;10.23;2.33;;;8.50;99.90;;;;;;6221052;22;20082;-78
2023/03/15 12:46:42;;;;;;;6.10;1.60;;;8.40;99.90;;;;;;6246536;22;20457;-79
2023/03/15 12:49:18;;;;;;;7.55;2.05;;;8.30;99.90;;;;;;6246436;22;20046;-78
2023/03/15 12:51:57;;;;;;;6.65;2.00;;;8.20;99.90;;;;;;6273998;22;20042;-78
2023/03/15 12:54:29;;;;;;;7.28;1.90;;;8.30;99.90;;;;;;6246432;22;20117;-78
2023/03/15 12:57:03;;;;;;;6.35;1.50;;;8.40;99.90;;;;;;6245727;22;20011;-79